sensor_id;sensor_type;location;lat;lon;timestamp;P1;P2;P0
77320;PMS7003;66382;52.252;8.780;2023-11-21T00:00:14;35.00;33.00;21.25
77320;PMS7003;66382;52.252;8.780;2023-11-21T00:02:40;33.00;31.75;20.25
77320;PMS7003;66382;52.252;8.780;2023-11-21T00:05:06;40.75;35.50;23.00
77320;PMS7003;66382;52.252;8.780;2023-11-21T00:07:32;35.00;33.75;23.25
77320;PMS7003;66382;52.252;8.780;2023-11-21T00:09:58;36.25;34.00;22.50
77320;PMS7003;66382;52.252;8.780;2023-11-21T00:12:23;35.25;34.25;23.25
77320;PMS7003;66382;52.252;8.780;2023-11-21T00:14:50;40.75;37.25;23.75
77320;PMS7003;66382;52.252;8.780;2023-11-21T00:17:15;43.75;38.75;24.75
77320;PMS7003;66382;52.252;8.780;2023-11-21T00:19:41;37.50;35.00;23.75
77320;PMS7003;66382;52.252;8.780;2023-11-21T00:22:06;34.75;33.25;24.00
77320;PMS7003;66382;52.252;8.780;2023-11-21T00:24:32;43.75;38.00;24.75
77320;PMS7003;66382;52.252;8.780;2023-11-21T00:26:57;39.00;35.50;22.75
77320;PMS7003;66382;52.252;8.780;2023-11-21T00:29:22;45.00;39.00;25.00
77320;PMS7003;66382;52.252;8.780;2023-11-21T00:31:49;40.75;36.75;24.25
77320;PMS7003;66382;52.252;8.780;2023-11-21T00:34:15;35.00;34.00;23.00
77320;PMS7003;66382;52.252;8.780;2023-11-21T00:36:40;39.00;36.00;25.25
77320;PMS7003;66382;52.252;8.780;2023-11-21T00:39:06;46.75;39.75;24.75
77320;PMS7003;66382;52.252;8.780;2023-11-21T00:41:31;41.25;37.25;24.00
77320;PMS7003;66382;52.252;8.780;2023-11-21T00:43:56;44.50;38.25;25.75
77320;PMS7003;66382;52.252;8.780;2023-11-21T00:46:22;43.50;38.00;24.75
77320;PMS7003;66382;52.252;8.780;2023-11-21T00:48:49;45.00;39.50;24.25
77320;PMS7003;66382;52.252;8.780;2023-11-21T00:51:14;43.75;38.75;24.75
77320;PMS7003;66382;52.252;8.780;2023-11-21T00:53:40;48.25;41.75;25.50
77320;PMS7003;66382;52.252;8.780;2023-11-21T00:56:05;45.25;39.00;25.50
77320;PMS7003;66382;52.252;8.780;2023-11-21T00:58:31;40.25;37.00;25.00
77320;PMS7003;66382;52.252;8.780;2023-11-21T01:00:57;38.75;35.50;23.00
77320;PMS7003;66382;52.252;8.780;2023-11-21T01:03:22;41.75;37.75;22.00
77320;PMS7003;66382;52.252;8.780;2023-11-21T01:05:49;43.00;37.75;24.25
77320;PMS7003;66382;52.252;8.780;2023-11-21T01:08:14;45.25;39.75;24.00
77320;PMS7003;66382;52.252;8.780;2023-11-21T01:10:40;44.50;39.00;24.25
77320;PMS7003;66382;52.252;8.780;2023-11-21T01:13:05;40.00;35.50;22.00
77320;PMS7003;66382;52.252;8.780;2023-11-21T01:15:31;44.75;39.25;23.50
77320;PMS7003;66382;52.252;8.780;2023-11-21T01:17:56;50.50;42.75;25.25
77320;PMS7003;66382;52.252;8.780;2023-11-21T01:20:22;43.50;38.25;24.25
77320;PMS7003;66382;52.252;8.780;2023-11-21T01:22:49;44.75;37.50;24.25
77320;PMS7003;66382;52.252;8.780;2023-11-21T01:25:14;44.00;38.75;24.25
77320;PMS7003;66382;52.252;8.780;2023-11-21T01:27:40;46.00;39.00;24.50
77320;PMS7003;66382;52.252;8.780;2023-11-21T01:30:06;43.75;38.00;23.75
77320;PMS7003;66382;52.252;8.780;2023-11-21T01:32:32;41.00;37.25;24.00
77320;PMS7003;66382;52.252;8.780;2023-11-21T01:34:57;39.50;35.25;24.00
77320;PMS7003;66382;52.252;8.780;2023-11-21T01:37:22;43.00;38.50;23.00
77320;PMS7003;66382;52.252;8.780;2023-11-21T01:39:49;41.75;37.50;23.25
77320;PMS7003;66382;52.252;8.780;2023-11-21T01:42:15;42.75;38.00;23.25
77320;PMS7003;66382;52.252;8.780;2023-11-21T01:44:40;44.50;38.50;24.50
77320;PMS7003;66382;52.252;8.780;2023-11-21T01:47:06;45.00;39.50;24.00
77320;PMS7003;66382;52.252;8.780;2023-11-21T01:49:33;49.75;41.00;24.50
77320;PMS7003;66382;52.252;8.780;2023-11-21T01:51:59;40.75;37.00;23.00
77320;PMS7003;66382;52.252;8.780;2023-11-21T01:54:25;41.25;36.25;23.75
77320;PMS7003;66382;52.252;8.780;2023-11-21T01:56:52;43.00;36.50;22.75
77320;PMS7003;66382;52.252;8.780;2023-11-21T01:59:18;43.00;38.50;23.50
77320;PMS7003;66382;52.252;8.780;2023-11-21T02:01:45;44.50;38.25;23.75
77320;PMS7003;66382;52.252;8.780;2023-11-21T02:04:11;40.25;36.75;23.75
77320;PMS7003;66382;52.252;8.780;2023-11-21T02:06:36;43.00;38.50;24.00
77320;PMS7003;66382;52.252;8.780;2023-11-21T02:09:02;43.25;38.50;23.00
77320;PMS7003;66382;52.252;8.780;2023-11-21T02:11:27;49.75;41.25;23.75
77320;PMS7003;66382;52.252;8.780;2023-11-21T02:13:54;42.75;36.75;22.25
77320;PMS7003;66382;52.252;8.780;2023-11-21T02:16:20;42.75;37.25;24.00
77320;PMS7003;66382;52.252;8.780;2023-11-21T02:18:45;45.75;39.50;24.75
77320;PMS7003;66382;52.252;8.780;2023-11-21T02:21:11;44.50;39.00;24.50
77320;PMS7003;66382;52.252;8.780;2023-11-21T02:23:38;47.00;40.25;24.00
77320;PMS7003;66382;52.252;8.780;2023-11-21T02:26:04;43.00;35.25;21.25
77320;PMS7003;66382;52.252;8.780;2023-11-21T02:28:29;50.00;42.00;26.00
77320;PMS7003;66382;52.252;8.780;2023-11-21T02:30:55;45.25;40.00;24.00
77320;PMS7003;66382;52.252;8.780;2023-11-21T02:33:20;47.00;40.50;24.00
77320;PMS7003;66382;52.252;8.780;2023-11-21T02:35:46;42.00;37.50;24.00
77320;PMS7003;66382;52.252;8.780;2023-11-21T02:38:11;42.25;37.25;24.00
77320;PMS7003;66382;52.252;8.780;2023-11-21T02:40:38;45.25;38.75;23.25
77320;PMS7003;66382;52.252;8.780;2023-11-21T02:43:04;44.25;38.00;23.00
77320;PMS7003;66382;52.252;8.780;2023-11-21T02:45:29;42.25;37.75;23.25
77320;PMS7003;66382;52.252;8.780;2023-11-21T02:47:55;43.00;37.75;21.00
77320;PMS7003;66382;52.252;8.780;2023-11-21T02:50:20;42.25;37.25;23.50
77320;PMS7003;66382;52.252;8.780;2023-11-21T02:52:46;29.00;29.00;23.00
77320;PMS7003;66382;52.252;8.780;2023-11-21T02:55:11;47.75;40.50;24.25
77320;PMS7003;66382;52.252;8.780;2023-11-21T02:57:38;46.25;40.25;24.75
77320;PMS7003;66382;52.252;8.780;2023-11-21T03:00:04;43.00;38.00;24.25
77320;PMS7003;66382;52.252;8.780;2023-11-21T03:02:31;43.75;38.00;22.25
77320;PMS7003;66382;52.252;8.780;2023-11-21T03:04:56;41.50;37.25;23.50
77320;PMS7003;66382;52.252;8.780;2023-11-21T03:07:22;45.00;38.75;23.75
77320;PMS7003;66382;52.252;8.780;2023-11-21T03:09:47;42.25;37.50;24.00
77320;PMS7003;66382;52.252;8.780;2023-11-21T03:12:13;46.00;39.25;24.75
77320;PMS7003;66382;52.252;8.780;2023-11-21T03:14:40;46.50;40.25;25.00
77320;PMS7003;66382;52.252;8.780;2023-11-21T03:17:05;40.00;36.25;23.00
77320;PMS7003;66382;52.252;8.780;2023-11-21T03:19:30;47.50;41.00;24.75
77320;PMS7003;66382;52.252;8.780;2023-11-21T03:21:56;42.75;38.00;23.25
77320;PMS7003;66382;52.252;8.780;2023-11-21T03:24:22;45.00;39.25;23.25
77320;PMS7003;66382;52.252;8.780;2023-11-21T03:26:47;43.75;38.00;24.25
77320;PMS7003;66382;52.252;8.780;2023-11-21T03:29:13;42.00;37.50;23.00
77320;PMS7003;66382;52.252;8.780;2023-11-21T03:31:40;51.50;41.00;24.75
77320;PMS7003;66382;52.252;8.780;2023-11-21T03:34:06;44.00;37.25;23.00
77320;PMS7003;66382;52.252;8.780;2023-11-21T03:36:31;48.75;41.50;24.75
77320;PMS7003;66382;52.252;8.780;2023-11-21T03:38:56;45.50;38.75;23.50
77320;PMS7003;66382;52.252;8.780;2023-11-21T03:41:22;46.00;38.75;22.00
77320;PMS7003;66382;52.252;8.780;2023-11-21T03:43:47;40.50;36.50;23.50
77320;PMS7003;66382;52.252;8.780;2023-11-21T03:46:13;45.50;38.50;24.25
77320;PMS7003;66382;52.252;8.780;2023-11-21T03:48:40;42.25;37.00;22.50
77320;PMS7003;66382;52.252;8.780;2023-11-21T03:51:06;44.25;38.75;23.25
77320;PMS7003;66382;52.252;8.780;2023-11-21T03:53:31;37.00;34.75;23.00
77320;PMS7003;66382;52.252;8.780;2023-11-21T03:55:57;41.75;37.25;21.25
77320;PMS7003;66382;52.252;8.780;2023-11-21T03:58:23;42.75;37.75;23.75
77320;PMS7003;66382;52.252;8.780;2023-11-21T04:00:48;47.25;39.75;24.00
77320;PMS7003;66382;52.252;8.780;2023-11-21T04:03:13;37.50;35.00;22.50
77320;PMS7003;66382;52.252;8.780;2023-11-21T04:05:40;44.25;35.75;22.75
77320;PMS7003;66382;52.252;8.780;2023-11-21T04:08:06;46.75;40.00;24.00
77320;PMS7003;66382;52.252;8.780;2023-11-21T04:10:31;43.75;38.50;23.00
77320;PMS7003;66382;52.252;8.780;2023-11-21T04:12:57;47.00;40.50;25.00
77320;PMS7003;66382;52.252;8.780;2023-11-21T04:15:22;47.50;40.25;24.25
77320;PMS7003;66382;52.252;8.780;2023-11-21T04:17:48;41.25;36.75;23.00
77320;PMS7003;66382;52.252;8.780;2023-11-21T04:20:13;44.75;38.75;25.00
77320;PMS7003;66382;52.252;8.780;2023-11-21T04:22:40;46.50;40.00;23.50
77320;PMS7003;66382;52.252;8.780;2023-11-21T04:25:07;45.75;37.25;23.75
77320;PMS7003;66382;52.252;8.780;2023-11-21T04:27:33;46.75;40.25;24.00
77320;PMS7003;66382;52.252;8.780;2023-11-21T04:29:59;44.50;37.75;23.50
77320;PMS7003;66382;52.252;8.780;2023-11-21T04:32:24;44.75;38.00;22.75
77320;PMS7003;66382;52.252;8.780;2023-11-21T04:34:49;47.25;39.75;23.00
77320;PMS7003;66382;52.252;8.780;2023-11-21T04:37:15;42.50;37.25;23.00
77320;PMS7003;66382;52.252;8.780;2023-11-21T04:39:42;44.00;38.25;24.00
77320;PMS7003;66382;52.252;8.780;2023-11-21T04:42:07;48.25;40.50;23.50
77320;PMS7003;66382;52.252;8.780;2023-11-21T04:44:32;45.75;39.75;23.25
77320;PMS7003;66382;52.252;8.780;2023-11-21T04:46:58;40.25;36.00;21.50
77320;PMS7003;66382;52.252;8.780;2023-11-21T04:49:23;46.00;39.75;23.25
77320;PMS7003;66382;52.252;8.780;2023-11-21T04:51:49;44.50;38.00;24.50
77320;PMS7003;66382;52.252;8.780;2023-11-21T04:54:14;41.75;37.25;22.75
77320;PMS7003;66382;52.252;8.780;2023-11-21T04:56:41;47.00;40.00;24.00
77320;PMS7003;66382;52.252;8.780;2023-11-21T04:59:06;44.75;38.50;22.75
77320;PMS7003;66382;52.252;8.780;2023-11-21T05:01:32;44.25;38.50;23.75
77320;PMS7003;66382;52.252;8.780;2023-11-21T05:03:57;36.00;34.00;20.25
77320;PMS7003;66382;52.252;8.780;2023-11-21T05:06:23;34.00;32.75;21.75
77320;PMS7003;66382;52.252;8.780;2023-11-21T05:08:48;39.50;35.75;23.00
77320;PMS7003;66382;52.252;8.780;2023-11-21T05:11:22;40.00;36.25;21.00
77320;PMS7003;66382;52.252;8.780;2023-11-21T05:13:50;35.00;34.00;21.50
77320;PMS7003;66382;52.252;8.780;2023-11-21T05:16:15;37.25;34.75;20.50
77320;PMS7003;66382;52.252;8.780;2023-11-21T05:18:41;41.00;36.75;22.00
77320;PMS7003;66382;52.252;8.780;2023-11-21T05:21:06;36.75;34.00;21.00
77320;PMS7003;66382;52.252;8.780;2023-11-21T05:23:31;32.50;31.50;19.75
77320;PMS7003;66382;52.252;8.780;2023-11-21T05:25:57;33.25;32.25;20.50
77320;PMS7003;66382;52.252;8.780;2023-11-21T05:28:22;35.50;33.25;18.75
77320;PMS7003;66382;52.252;8.780;2023-11-21T05:30:49;36.00;33.25;21.00
77320;PMS7003;66382;52.252;8.780;2023-11-21T05:33:15;32.75;31.75;19.00
77320;PMS7003;66382;52.252;8.780;2023-11-21T05:35:40;35.75;32.75;20.00
77320;PMS7003;66382;52.252;8.780;2023-11-21T05:38:05;27.75;27.75;16.25
77320;PMS7003;66382;52.252;8.780;2023-11-21T05:40:31;31.50;31.00;18.75
77320;PMS7003;66382;52.252;8.780;2023-11-21T05:42:56;29.50;29.50;19.50
77320;PMS7003;66382;52.252;8.780;2023-11-21T05:45:22;31.75;31.00;19.00
77320;PMS7003;66382;52.252;8.780;2023-11-21T05:47:49;23.00;23.00;14.00
77320;PMS7003;66382;52.252;8.780;2023-11-21T05:50:14;28.75;28.25;16.75
77320;PMS7003;66382;52.252;8.780;2023-11-21T05:52:41;27.50;26.75;16.50
77320;PMS7003;66382;52.252;8.780;2023-11-21T05:55:07;27.00;26.00;15.50
77320;PMS7003;66382;52.252;8.780;2023-11-21T05:57:33;26.50;26.50;16.50
77320;PMS7003;66382;52.252;8.780;2023-11-21T05:59:59;26.00;25.50;14.50
77320;PMS7003;66382;52.252;8.780;2023-11-21T06:02:24;25.75;25.75;15.50
77320;PMS7003;66382;52.252;8.780;2023-11-21T06:04:51;30.00;30.00;16.25
77320;PMS7003;66382;52.252;8.780;2023-11-21T06:07:16;27.50;27.50;19.00
77320;PMS7003;66382;52.252;8.780;2023-11-21T06:09:42;24.00;24.00;15.25
77320;PMS7003;66382;52.252;8.780;2023-11-21T06:12:07;21.50;21.50;12.75
77320;PMS7003;66382;52.252;8.780;2023-11-21T06:14:33;27.00;27.00;19.00
77320;PMS7003;66382;52.252;8.780;2023-11-21T06:16:58;27.00;27.00;16.25
77320;PMS7003;66382;52.252;8.780;2023-11-21T06:19:24;24.25;24.25;16.00
77320;PMS7003;66382;52.252;8.780;2023-11-21T06:21:50;24.00;23.00;14.50
77320;PMS7003;66382;52.252;8.780;2023-11-21T06:24:16;26.25;25.25;15.75
77320;PMS7003;66382;52.252;8.780;2023-11-21T06:26:41;24.75;24.75;15.25
77320;PMS7003;66382;52.252;8.780;2023-11-21T06:29:07;24.50;24.50;13.50
77320;PMS7003;66382;52.252;8.780;2023-11-21T06:31:32;22.00;22.00;12.75
77320;PMS7003;66382;52.252;8.780;2023-11-21T06:33:57;22.75;22.50;12.25
77320;PMS7003;66382;52.252;8.780;2023-11-21T06:36:23;21.50;21.50;13.50
77320;PMS7003;66382;52.252;8.780;2023-11-21T06:38:50;21.50;21.50;15.25
77320;PMS7003;66382;52.252;8.780;2023-11-21T06:41:15;24.00;23.00;15.75
77320;PMS7003;66382;52.252;8.780;2023-11-21T06:43:41;25.50;25.50;15.75
77320;PMS7003;66382;52.252;8.780;2023-11-21T06:46:06;19.25;19.25;13.00
77320;PMS7003;66382;52.252;8.780;2023-11-21T06:48:31;24.00;24.00;15.25
77320;PMS7003;66382;52.252;8.780;2023-11-21T06:50:57;22.75;22.25;14.00
77320;PMS7003;66382;52.252;8.780;2023-11-21T06:53:22;23.50;22.75;12.00
77320;PMS7003;66382;52.252;8.780;2023-11-21T06:55:49;22.50;22.50;12.50
77320;PMS7003;66382;52.252;8.780;2023-11-21T06:58:15;16.00;16.00;9.00
77320;PMS7003;66382;52.252;8.780;2023-11-21T07:00:40;12.00;12.00;9.50
77320;PMS7003;66382;52.252;8.780;2023-11-21T07:03:05;13.25;13.25;10.00
77320;PMS7003;66382;52.252;8.780;2023-11-21T07:05:31;10.25;10.25;7.25
77320;PMS7003;66382;52.252;8.780;2023-11-21T07:07:56;10.25;10.25;8.00
77320;PMS7003;66382;52.252;8.780;2023-11-21T07:10:22;10.25;10.25;8.00
77320;PMS7003;66382;52.252;8.780;2023-11-21T07:12:49;12.50;12.50;7.75
77320;PMS7003;66382;52.252;8.780;2023-11-21T07:15:14;11.50;11.50;5.50
77320;PMS7003;66382;52.252;8.780;2023-11-21T07:17:40;13.75;13.75;8.75
77320;PMS7003;66382;52.252;8.780;2023-11-21T07:20:05;15.25;15.25;8.25
77320;PMS7003;66382;52.252;8.780;2023-11-21T07:22:31;15.75;15.75;10.75
77320;PMS7003;66382;52.252;8.780;2023-11-21T07:24:57;11.25;11.25;9.00
77320;PMS7003;66382;52.252;8.780;2023-11-21T07:27:22;12.00;12.00;9.00
77320;PMS7003;66382;52.252;8.780;2023-11-21T07:29:49;16.00;16.00;11.25
77320;PMS7003;66382;52.252;8.780;2023-11-21T07:32:15;12.75;12.75;10.00
77320;PMS7003;66382;52.252;8.780;2023-11-21T07:34:40;11.75;11.75;8.50
77320;PMS7003;66382;52.252;8.780;2023-11-21T07:37:05;10.00;10.00;7.50
77320;PMS7003;66382;52.252;8.780;2023-11-21T07:39:31;5.25;5.25;5.25
77320;PMS7003;66382;52.252;8.780;2023-11-21T07:41:56;9.50;9.50;7.00
77320;PMS7003;66382;52.252;8.780;2023-11-21T07:44:22;9.25;9.25;7.00
77320;PMS7003;66382;52.252;8.780;2023-11-21T07:46:49;9.25;9.25;7.00
77320;PMS7003;66382;52.252;8.780;2023-11-21T07:49:14;11.00;11.00;9.25
77320;PMS7003;66382;52.252;8.780;2023-11-21T07:51:39;9.75;9.75;7.75
77320;PMS7003;66382;52.252;8.780;2023-11-21T07:54:05;10.50;10.50;8.75
77320;PMS7003;66382;52.252;8.780;2023-11-21T07:56:30;12.50;12.50;7.50
77320;PMS7003;66382;52.252;8.780;2023-11-21T07:58:56;12.00;12.00;8.75
77320;PMS7003;66382;52.252;8.780;2023-11-21T08:01:21;16.75;15.50;10.25
77320;PMS7003;66382;52.252;8.780;2023-11-21T08:03:48;16.50;16.50;11.00
77320;PMS7003;66382;52.252;8.780;2023-11-21T08:06:13;13.75;13.75;9.00
77320;PMS7003;66382;52.252;8.780;2023-11-21T08:08:39;13.50;13.50;10.50
77320;PMS7003;66382;52.252;8.780;2023-11-21T08:11:04;13.75;13.75;9.00
77320;PMS7003;66382;52.252;8.780;2023-11-21T08:13:30;18.75;18.75;11.25
77320;PMS7003;66382;52.252;8.780;2023-11-21T08:15:56;14.50;14.50;10.50
77320;PMS7003;66382;52.252;8.780;2023-11-21T08:18:22;11.50;11.50;7.50
77320;PMS7003;66382;52.252;8.780;2023-11-21T08:20:48;11.75;10.75;7.50
77320;PMS7003;66382;52.252;8.780;2023-11-21T08:23:14;8.25;8.25;6.50
77320;PMS7003;66382;52.252;8.780;2023-11-21T08:25:39;8.25;8.25;6.00
77320;PMS7003;66382;52.252;8.780;2023-11-21T08:28:05;8.50;8.50;6.25
77320;PMS7003;66382;52.252;8.780;2023-11-21T08:30:30;8.00;8.00;6.75
77320;PMS7003;66382;52.252;8.780;2023-11-21T08:32:56;9.50;9.50;7.00
77320;PMS7003;66382;52.252;8.780;2023-11-21T08:35:21;8.00;8.00;7.00
77320;PMS7003;66382;52.252;8.780;2023-11-21T08:37:48;8.25;8.25;6.25
77320;PMS7003;66382;52.252;8.780;2023-11-21T08:40:15;10.00;10.00;9.00
77320;PMS7003;66382;52.252;8.780;2023-11-21T08:42:41;10.00;10.00;7.00
77320;PMS7003;66382;52.252;8.780;2023-11-21T08:45:07;8.00;8.00;6.00
77320;PMS7003;66382;52.252;8.780;2023-11-21T08:47:33;6.50;6.50;4.50
77320;PMS7003;66382;52.252;8.780;2023-11-21T08:49:58;8.50;8.50;6.50
77320;PMS7003;66382;52.252;8.780;2023-11-21T08:52:24;6.75;6.75;5.00
77320;PMS7003;66382;52.252;8.780;2023-11-21T08:54:50;6.00;6.00;5.00
77320;PMS7003;66382;52.252;8.780;2023-11-21T08:57:16;7.50;7.50;5.00
77320;PMS7003;66382;52.252;8.780;2023-11-21T08:59:41;5.75;5.75;5.00
77320;PMS7003;66382;52.252;8.780;2023-11-21T09:02:07;7.00;5.75;4.00
77320;PMS7003;66382;52.252;8.780;2023-11-21T09:04:32;5.75;5.75;4.25
77320;PMS7003;66382;52.252;8.780;2023-11-21T09:06:58;4.00;4.00;4.00
77320;PMS7003;66382;52.252;8.780;2023-11-21T09:09:23;6.25;6.25;5.25
77320;PMS7003;66382;52.252;8.780;2023-11-21T09:11:50;5.50;5.50;4.00
77320;PMS7003;66382;52.252;8.780;2023-11-21T09:14:15;4.50;4.50;4.00
77320;PMS7003;66382;52.252;8.780;2023-11-21T09:16:41;4.00;4.00;4.00
77320;PMS7003;66382;52.252;8.780;2023-11-21T09:19:06;5.00;5.00;4.00
77320;PMS7003;66382;52.252;8.780;2023-11-21T09:21:32;3.00;3.00;2.25
77320;PMS7003;66382;52.252;8.780;2023-11-21T09:23:57;6.25;6.25;4.25
77320;PMS7003;66382;52.252;8.780;2023-11-21T09:26:22;4.00;4.00;4.00
77320;PMS7003;66382;52.252;8.780;2023-11-21T09:28:49;5.00;5.00;4.75
77320;PMS7003;66382;52.252;8.780;2023-11-21T09:31:15;4.00;4.00;3.00
77320;PMS7003;66382;52.252;8.780;2023-11-21T09:33:41;5.75;5.75;4.50
77320;PMS7003;66382;52.252;8.780;2023-11-21T09:36:10;6.50;6.50;4.25
77320;PMS7003;66382;52.252;8.780;2023-11-21T09:38:36;5.00;5.00;3.75
77320;PMS7003;66382;52.252;8.780;2023-11-21T09:41:02;4.25;4.25;4.00
77320;PMS7003;66382;52.252;8.780;2023-11-21T09:43:29;4.00;4.00;3.75
77320;PMS7003;66382;52.252;8.780;2023-11-21T09:45:59;5.00;5.00;4.00
77320;PMS7003;66382;52.252;8.780;2023-11-21T09:48:26;4.00;4.00;2.25
77320;PMS7003;66382;52.252;8.780;2023-11-21T09:50:54;5.75;5.75;4.00
77320;PMS7003;66382;52.252;8.780;2023-11-21T09:53:19;6.75;6.75;5.50
77320;PMS7003;66382;52.252;8.780;2023-11-21T09:55:47;6.50;6.50;4.25
77320;PMS7003;66382;52.252;8.780;2023-11-21T09:58:15;9.75;9.75;8.00
77320;PMS7003;66382;52.252;8.780;2023-11-21T10:00:41;7.00;7.00;5.25
77320;PMS7003;66382;52.252;8.780;2023-11-21T10:03:09;8.00;7.25;5.00
77320;PMS7003;66382;52.252;8.780;2023-11-21T10:05:35;6.00;6.00;4.50
77320;PMS7003;66382;52.252;8.780;2023-11-21T10:08:00;7.75;7.75;6.00
77320;PMS7003;66382;52.252;8.780;2023-11-21T10:10:26;7.75;7.75;6.00
77320;PMS7003;66382;52.252;8.780;2023-11-21T10:12:54;7.00;7.00;5.75
77320;PMS7003;66382;52.252;8.780;2023-11-21T10:15:21;9.25;9.25;6.00
77320;PMS7003;66382;52.252;8.780;2023-11-21T10:17:48;7.50;7.50;6.50
77320;PMS7003;66382;52.252;8.780;2023-11-21T10:20:16;7.25;7.25;6.00
77320;PMS7003;66382;52.252;8.780;2023-11-21T10:22:41;7.25;7.25;4.00
77320;PMS7003;66382;52.252;8.780;2023-11-21T10:25:08;10.00;10.00;7.00
77320;PMS7003;66382;52.252;8.780;2023-11-21T10:27:34;6.25;6.25;5.25
77320;PMS7003;66382;52.252;8.780;2023-11-21T10:30:00;7.75;7.75;4.50
77320;PMS7003;66382;52.252;8.780;2023-11-21T10:32:27;9.50;9.50;7.00
77320;PMS7003;66382;52.252;8.780;2023-11-21T10:34:56;13.75;13.75;8.00
77320;PMS7003;66382;52.252;8.780;2023-11-21T10:37:23;9.75;9.75;7.00
77320;PMS7003;66382;52.252;8.780;2023-11-21T10:39:48;12.00;12.00;8.00
77320;PMS7003;66382;52.252;8.780;2023-11-21T10:42:14;13.25;13.25;9.00
77320;PMS7003;66382;52.252;8.780;2023-11-21T10:44:42;17.00;15.25;9.00
77320;PMS7003;66382;52.252;8.780;2023-11-21T10:47:08;12.75;12.75;9.25
77320;PMS7003;66382;52.252;8.780;2023-11-21T10:49:33;11.75;11.75;7.50
77320;PMS7003;66382;52.252;8.780;2023-11-21T10:51:59;14.50;14.50;10.00
77320;PMS7003;66382;52.252;8.780;2023-11-21T10:54:26;14.00;14.00;9.75
77320;PMS7003;66382;52.252;8.780;2023-11-21T10:56:53;13.00;13.00;8.75
77320;PMS7003;66382;52.252;8.780;2023-11-21T10:59:22;13.25;13.25;8.75
77320;PMS7003;66382;52.252;8.780;2023-11-21T11:01:48;14.00;14.00;10.25
77320;PMS7003;66382;52.252;8.780;2023-11-21T11:04:15;14.50;14.50;9.00
77320;PMS7003;66382;52.252;8.780;2023-11-21T11:06:43;14.50;14.50;12.00
77320;PMS7003;66382;52.252;8.780;2023-11-21T11:09:12;15.50;15.50;12.50
77320;PMS7003;66382;52.252;8.780;2023-11-21T11:11:40;16.75;16.75;10.25
77320;PMS7003;66382;52.252;8.780;2023-11-21T11:14:06;14.25;14.25;10.00
77320;PMS7003;66382;52.252;8.780;2023-11-21T11:16:32;14.00;14.00;9.00
77320;PMS7003;66382;52.252;8.780;2023-11-21T11:18:58;12.50;12.50;9.00
77320;PMS7003;66382;52.252;8.780;2023-11-21T11:21:26;14.50;14.50;10.00
77320;PMS7003;66382;52.252;8.780;2023-11-21T11:24:13;15.00;15.00;9.50
77320;PMS7003;66382;52.252;8.780;2023-11-21T11:26:55;19.75;19.75;13.00
77320;PMS7003;66382;52.252;8.780;2023-11-21T11:29:28;16.75;16.75;12.25
77320;PMS7003;66382;52.252;8.780;2023-11-21T11:32:04;17.00;16.50;11.50
77320;PMS7003;66382;52.252;8.780;2023-11-21T11:34:39;13.50;13.50;10.25
77320;PMS7003;66382;52.252;8.780;2023-11-21T11:37:11;14.75;14.75;11.75
77320;PMS7003;66382;52.252;8.780;2023-11-21T11:39:37;13.25;13.25;11.00
77320;PMS7003;66382;52.252;8.780;2023-11-21T11:42:06;15.75;14.75;9.00
77320;PMS7003;66382;52.252;8.780;2023-11-21T11:44:48;14.25;14.25;9.75
77320;PMS7003;66382;52.252;8.780;2023-11-21T11:47:15;17.75;17.75;11.50
77320;PMS7003;66382;52.252;8.780;2023-11-21T11:49:54;12.50;12.50;9.00
77320;PMS7003;66382;52.252;8.780;2023-11-21T11:52:37;13.50;13.50;9.00
77320;PMS7003;66382;52.252;8.780;2023-11-21T11:55:05;13.00;13.00;8.25
77320;PMS7003;66382;52.252;8.780;2023-11-21T11:57:33;16.50;16.00;10.00
77320;PMS7003;66382;52.252;8.780;2023-11-21T12:02:44;13.25;13.25;10.25
77320;PMS7003;66382;52.252;8.780;2023-11-21T12:05:10;9.75;9.75;8.25
77320;PMS7003;66382;52.252;8.780;2023-11-21T12:07:44;11.75;11.75;11.00
77320;PMS7003;66382;52.252;8.780;2023-11-21T12:10:14;3.75;3.75;2.00
77320;PMS7003;66382;52.252;8.780;2023-11-21T12:12:47;12.00;12.00;8.75
77320;PMS7003;66382;52.252;8.780;2023-11-21T12:15:14;12.75;12.75;8.00
77320;PMS7003;66382;52.252;8.780;2023-11-21T12:17:39;12.00;12.00;8.25
77320;PMS7003;66382;52.252;8.780;2023-11-21T12:20:06;10.00;10.00;8.00
77320;PMS7003;66382;52.252;8.780;2023-11-21T12:22:32;20.50;18.75;13.75
77320;PMS7003;66382;52.252;8.780;2023-11-21T12:24:58;15.75;15.75;9.50
77320;PMS7003;66382;52.252;8.780;2023-11-21T12:27:23;29.25;29.25;20.00
77320;PMS7003;66382;52.252;8.780;2023-11-21T12:29:50;17.50;17.25;13.50
77320;PMS7003;66382;52.252;8.780;2023-11-21T12:32:16;28.25;28.25;19.00
77320;PMS7003;66382;52.252;8.780;2023-11-21T12:34:41;31.75;31.75;22.25
77320;PMS7003;66382;52.252;8.780;2023-11-21T12:37:07;16.75;16.25;10.00
77320;PMS7003;66382;52.252;8.780;2023-11-21T12:39:32;23.25;23.25;18.00
77320;PMS7003;66382;52.252;8.780;2023-11-21T12:41:58;17.00;17.00;13.75
77320;PMS7003;66382;52.252;8.780;2023-11-21T12:44:23;18.00;18.00;14.75
77320;PMS7003;66382;52.252;8.780;2023-11-21T12:46:50;14.75;13.75;9.50
77320;PMS7003;66382;52.252;8.780;2023-11-21T12:49:16;25.75;25.75;19.75
77320;PMS7003;66382;52.252;8.780;2023-11-21T12:51:41;20.00;20.00;16.50
77320;PMS7003;66382;52.252;8.780;2023-11-21T12:54:07;12.00;12.00;9.00
77320;PMS7003;66382;52.252;8.780;2023-11-21T12:56:33;9.75;9.75;7.75
77320;PMS7003;66382;52.252;8.780;2023-11-21T12:58:58;14.00;14.00;9.75
77320;PMS7003;66382;52.252;8.780;2023-11-21T13:01:25;10.50;10.50;8.00
77320;PMS7003;66382;52.252;8.780;2023-11-21T13:03:52;21.75;21.75;17.25
77320;PMS7003;66382;52.252;8.780;2023-11-21T13:06:18;15.50;15.50;12.00
77320;PMS7003;66382;52.252;8.780;2023-11-21T13:08:44;10.25;10.25;7.00
77320;PMS7003;66382;52.252;8.780;2023-11-21T13:11:10;15.50;15.50;11.50
77320;PMS7003;66382;52.252;8.780;2023-11-21T13:13:36;16.75;16.75;13.75
77320;PMS7003;66382;52.252;8.780;2023-11-21T13:16:05;12.25;12.25;9.75
77320;PMS7003;66382;52.252;8.780;2023-11-21T13:18:31;12.50;12.50;9.50
77320;PMS7003;66382;52.252;8.780;2023-11-21T13:20:59;9.25;9.25;8.00
77320;PMS7003;66382;52.252;8.780;2023-11-21T13:23:26;11.00;11.00;9.00
77320;PMS7003;66382;52.252;8.780;2023-11-21T13:25:52;11.50;11.50;9.00
77320;PMS7003;66382;52.252;8.780;2023-11-21T13:28:19;12.75;12.75;10.00
77320;PMS7003;66382;52.252;8.780;2023-11-21T13:30:44;11.25;11.25;8.25
77320;PMS7003;66382;52.252;8.780;2023-11-21T13:33:09;11.75;11.75;8.50
77320;PMS7003;66382;52.252;8.780;2023-11-21T13:35:37;11.25;11.25;9.25
77320;PMS7003;66382;52.252;8.780;2023-11-21T13:38:06;12.25;12.25;9.00
77320;PMS7003;66382;52.252;8.780;2023-11-21T13:40:32;13.25;13.25;9.25
77320;PMS7003;66382;52.252;8.780;2023-11-21T13:42:58;11.25;11.25;8.25
77320;PMS7003;66382;52.252;8.780;2023-11-21T13:45:23;10.25;10.25;8.00
77320;PMS7003;66382;52.252;8.780;2023-11-21T13:47:49;14.50;14.50;10.50
77320;PMS7003;66382;52.252;8.780;2023-11-21T13:50:15;15.00;15.00;10.00